sensor_id;sensor_type;location;lat;lon;timestamp;temperature;humidity
53643;DHT22;39546;45.534;12.048;2022-08-11T00:01:07;29.20;53.30
53643;DHT22;39546;45.534;12.048;2022-08-11T00:07:10;29.20;53.10
53643;DHT22;39546;45.534;12.048;2022-08-11T00:13:12;29.10;53.10
53643;DHT22;39546;45.534;12.048;2022-08-11T00:19:21;29.10;53.00
53643;DHT22;39546;45.534;12.048;2022-08-11T00:25:24;29.10;53.00
53643;DHT22;39546;45.534;12.048;2022-08-11T00:31:31;29.00;53.10
53643;DHT22;39546;45.534;12.048;2022-08-11T00:37:57;28.90;52.90
53643;DHT22;39546;45.534;12.048;2022-08-11T01:03:31;28.70;52.80
53643;DHT22;39546;45.534;12.048;2022-08-11T01:09:53;28.50;53.10
53643;DHT22;39546;45.534;12.048;2022-08-11T01:46:45;28.30;53.40
53643;DHT22;39546;45.534;12.048;2022-08-11T01:53:06;28.20;53.30
53643;DHT22;39546;45.534;12.048;2022-08-11T02:11:38;28.00;53.30
53643;DHT22;39546;45.534;12.048;2022-08-11T02:17:49;28.00;53.40
53643;DHT22;39546;45.534;12.048;2022-08-11T02:24:19;27.90;53.60
53643;DHT22;39546;45.534;12.048;2022-08-11T02:30:27;27.80;53.80
53643;DHT22;39546;45.534;12.048;2022-08-11T02:36:40;27.70;54.10
53643;DHT22;39546;45.534;12.048;2022-08-11T02:49:04;27.50;54.30
53643;DHT22;39546;45.534;12.048;2022-08-11T03:01:48;27.60;53.90
53643;DHT22;39546;45.534;12.048;2022-08-11T03:21:22;27.50;53.60
53643;DHT22;39546;45.534;12.048;2022-08-11T03:33:45;27.30;54.10
53643;DHT22;39546;45.534;12.048;2022-08-11T03:40:16;27.20;54.30
53643;DHT22;39546;45.534;12.048;2022-08-11T03:53:04;27.10;54.50
53643;DHT22;39546;45.534;12.048;2022-08-11T04:18:49;26.90;55.00
53643;DHT22;39546;45.534;12.048;2022-08-11T04:31:36;26.80;55.00
53643;DHT22;39546;45.534;12.048;2022-08-11T04:44:31;26.40;55.50
53643;DHT22;39546;45.534;12.048;2022-08-11T05:17:21;26.20;55.50
53643;DHT22;39546;45.534;12.048;2022-08-11T05:23:48;26.20;55.40
53643;DHT22;39546;45.534;12.048;2022-08-11T05:30:12;26.30;55.20
53643;DHT22;39546;45.534;12.048;2022-08-11T05:36:51;26.40;54.90
53643;DHT22;39546;45.534;12.048;2022-08-11T05:43:12;26.50;54.70
53643;DHT22;39546;45.534;12.048;2022-08-11T05:49:34;26.60;54.60
53643;DHT22;39546;45.534;12.048;2022-08-11T05:55:57;26.70;54.50
53643;DHT22;39546;45.534;12.048;2022-08-11T06:02:18;26.80;54.40
53643;DHT22;39546;45.534;12.048;2022-08-11T06:08:29;26.80;54.40
53643;DHT22;39546;45.534;12.048;2022-08-11T06:14:33;26.80;54.30
53643;DHT22;39546;45.534;12.048;2022-08-11T06:20:48;26.90;54.20
53643;DHT22;39546;45.534;12.048;2022-08-11T06:26:52;27.10;53.80
53643;DHT22;39546;45.534;12.048;2022-08-11T06:32:55;27.10;53.70
53643;DHT22;39546;45.534;12.048;2022-08-11T06:51:55;27.30;53.20
53643;DHT22;39546;45.534;12.048;2022-08-11T06:58:00;27.30;53.00
53643;DHT22;39546;45.534;12.048;2022-08-11T07:17:56;27.90;52.20
53643;DHT22;39546;45.534;12.048;2022-08-11T07:24:22;28.20;52.10
53643;DHT22;39546;45.534;12.048;2022-08-11T07:30:45;28.40;51.60
53643;DHT22;39546;45.534;12.048;2022-08-11T07:36:59;28.60;51.40
53643;DHT22;39546;45.534;12.048;2022-08-11T07:43:05;28.80;50.80
53643;DHT22;39546;45.534;12.048;2022-08-11T07:49:08;28.90;49.50
53643;DHT22;39546;45.534;12.048;2022-08-11T07:55:29;29.00;48.80
53643;DHT22;39546;45.534;12.048;2022-08-11T08:01:32;29.10;48.40
53643;DHT22;39546;45.534;12.048;2022-08-11T08:07:53;29.30;47.90
53643;DHT22;39546;45.534;12.048;2022-08-11T08:14:16;29.30;47.70
53643;DHT22;39546;45.534;12.048;2022-08-11T08:20:39;29.00;48.30
53643;DHT22;39546;45.534;12.048;2022-08-11T08:26:43;28.90;48.40
53643;DHT22;39546;45.534;12.048;2022-08-11T08:33:14;29.00;48.60
53643;DHT22;39546;45.534;12.048;2022-08-11T08:39:21;29.30;47.90
53643;DHT22;39546;45.534;12.048;2022-08-11T08:45:24;29.50;48.20
53643;DHT22;39546;45.534;12.048;2022-08-11T08:51:30;29.60;47.80
53643;DHT22;39546;45.534;12.048;2022-08-11T08:57:36;29.80;46.70
53643;DHT22;39546;45.534;12.048;2022-08-11T09:03:49;29.90;45.40
53643;DHT22;39546;45.534;12.048;2022-08-11T09:09:53;30.00;44.70
53643;DHT22;39546;45.534;12.048;2022-08-11T09:16:14;30.20;43.80
53643;DHT22;39546;45.534;12.048;2022-08-11T09:22:20;30.30;43.40
53643;DHT22;39546;45.534;12.048;2022-08-11T09:29:03;30.40;42.70
53643;DHT22;39546;45.534;12.048;2022-08-11T09:35:06;30.50;41.50
53643;DHT22;39546;45.534;12.048;2022-08-11T09:41:10;30.60;40.80
53643;DHT22;39546;45.534;12.048;2022-08-11T09:47:23;30.70;40.40
53643;DHT22;39546;45.534;12.048;2022-08-11T09:53:29;30.80;39.40
53643;DHT22;39546;45.534;12.048;2022-08-11T09:59:33;30.90;40.90
53643;DHT22;39546;45.534;12.048;2022-08-11T10:05:37;31.00;40.50
53643;DHT22;39546;45.534;12.048;2022-08-11T10:11:59;31.10;41.20
53643;DHT22;39546;45.534;12.048;2022-08-11T10:18:19;31.30;39.50
53643;DHT22;39546;45.534;12.048;2022-08-11T10:24:43;31.50;38.70
53643;DHT22;39546;45.534;12.048;2022-08-11T10:31:04;31.60;38.10
53643;DHT22;39546;45.534;12.048;2022-08-11T10:37:45;31.80;39.40
53643;DHT22;39546;45.534;12.048;2022-08-11T10:43:50;31.90;39.10
53643;DHT22;39546;45.534;12.048;2022-08-11T10:50:18;32.10;38.00
53643;DHT22;39546;45.534;12.048;2022-08-11T10:56:39;32.20;37.60
53643;DHT22;39546;45.534;12.048;2022-08-11T11:03:01;32.40;36.80
53643;DHT22;39546;45.534;12.048;2022-08-11T11:15:26;32.80;36.50
53643;DHT22;39546;45.534;12.048;2022-08-11T11:21:53;33.10;36.60
53643;DHT22;39546;45.534;12.048;2022-08-11T11:40:54;33.70;35.50
53643;DHT22;39546;45.534;12.048;2022-08-11T11:47:15;34.00;34.90
53643;DHT22;39546;45.534;12.048;2022-08-11T11:53:23;34.00;34.50
53643;DHT22;39546;45.534;12.048;2022-08-11T11:59:27;34.20;33.80
53643;DHT22;39546;45.534;12.048;2022-08-11T12:05:48;34.20;33.90
53643;DHT22;39546;45.534;12.048;2022-08-11T12:11:54;34.00;34.70
53643;DHT22;39546;45.534;12.048;2022-08-11T12:18:16;34.30;33.70
53643;DHT22;39546;45.534;12.048;2022-08-11T12:24:19;34.30;33.10
53643;DHT22;39546;45.534;12.048;2022-08-11T12:30:40;34.30;33.10
53643;DHT22;39546;45.534;12.048;2022-08-11T12:36:49;34.30;34.30
53643;DHT22;39546;45.534;12.048;2022-08-11T12:42:53;34.20;34.50
53643;DHT22;39546;45.534;12.048;2022-08-11T12:49:18;34.20;33.80
53643;DHT22;39546;45.534;12.048;2022-08-11T12:55:40;34.10;32.80
53643;DHT22;39546;45.534;12.048;2022-08-11T13:02:02;33.90;33.00
53643;DHT22;39546;45.534;12.048;2022-08-11T13:08:37;33.90;32.20
53643;DHT22;39546;45.534;12.048;2022-08-11T13:14:40;33.80;32.50
53643;DHT22;39546;45.534;12.048;2022-08-11T13:21:01;33.80;32.00
53643;DHT22;39546;45.534;12.048;2022-08-11T13:27:04;33.90;32.40
53643;DHT22;39546;45.534;12.048;2022-08-11T13:33:06;33.80;32.50
53643;DHT22;39546;45.534;12.048;2022-08-11T13:39:09;33.80;33.00
53643;DHT22;39546;45.534;12.048;2022-08-11T13:45:12;33.80;33.10
53643;DHT22;39546;45.534;12.048;2022-08-11T13:51:15;33.60;33.00
53643;DHT22;39546;45.534;12.048;2022-08-11T13:57:34;33.70;32.50
53643;DHT22;39546;45.534;12.048;2022-08-11T14:03:39;33.70;31.90
53643;DHT22;39546;45.534;12.048;2022-08-11T14:10:25;33.70;31.90
53643;DHT22;39546;45.534;12.048;2022-08-11T14:16:51;33.80;31.80
53643;DHT22;39546;45.534;12.048;2022-08-11T14:22:55;33.70;31.80
53643;DHT22;39546;45.534;12.048;2022-08-11T14:29:07;33.70;32.00
53643;DHT22;39546;45.534;12.048;2022-08-11T14:35:10;33.70;32.30
53643;DHT22;39546;45.534;12.048;2022-08-11T14:41:12;33.80;32.00
53643;DHT22;39546;45.534;12.048;2022-08-11T14:47:36;33.90;31.80
53643;DHT22;39546;45.534;12.048;2022-08-11T14:53:39;33.90;32.90
53643;DHT22;39546;45.534;12.048;2022-08-11T14:59:42;33.90;32.50
53643;DHT22;39546;45.534;12.048;2022-08-11T15:05:53;34.00;32.00
53643;DHT22;39546;45.534;12.048;2022-08-11T15:12:00;34.00;31.60
53643;DHT22;39546;45.534;12.048;2022-08-11T15:18:21;34.00;32.00
53643;DHT22;39546;45.534;12.048;2022-08-11T15:24:25;34.00;31.70
53643;DHT22;39546;45.534;12.048;2022-08-11T15:30:28;34.20;31.20
53643;DHT22;39546;45.534;12.048;2022-08-11T15:37:16;34.00;32.40
53643;DHT22;39546;45.534;12.048;2022-08-11T15:43:45;34.00;32.80
53643;DHT22;39546;45.534;12.048;2022-08-11T15:50:13;34.10;31.90
53643;DHT22;39546;45.534;12.048;2022-08-11T15:56:17;34.20;31.60
53643;DHT22;39546;45.534;12.048;2022-08-11T16:02:22;34.10;31.90
53643;DHT22;39546;45.534;12.048;2022-08-11T16:08:27;34.20;31.80
53643;DHT22;39546;45.534;12.048;2022-08-11T16:14:33;34.20;31.90
53643;DHT22;39546;45.534;12.048;2022-08-11T16:20:56;34.30;31.50
53643;DHT22;39546;45.534;12.048;2022-08-11T16:27:00;34.30;31.70
53643;DHT22;39546;45.534;12.048;2022-08-11T16:33:03;34.30;31.40
53643;DHT22;39546;45.534;12.048;2022-08-11T16:39:07;34.30;31.40
53643;DHT22;39546;45.534;12.048;2022-08-11T16:45:10;34.30;31.70
53643;DHT22;39546;45.534;12.048;2022-08-11T16:51:31;34.20;32.00
53643;DHT22;39546;45.534;12.048;2022-08-11T16:57:34;34.30;31.70
53643;DHT22;39546;45.534;12.048;2022-08-11T17:04:02;34.30;31.60
53643;DHT22;39546;45.534;12.048;2022-08-11T17:10:32;34.30;31.60
53643;DHT22;39546;45.534;12.048;2022-08-11T17:16:56;34.30;31.70
53643;DHT22;39546;45.534;12.048;2022-08-11T17:23:00;34.20;31.70
53643;DHT22;39546;45.534;12.048;2022-08-11T17:29:30;34.00;32.00
53643;DHT22;39546;45.534;12.048;2022-08-11T17:35:38;33.90;32.10
53643;DHT22;39546;45.534;12.048;2022-08-11T17:41:41;33.60;32.90
53643;DHT22;39546;45.534;12.048;2022-08-11T17:48:03;33.20;33.70
53643;DHT22;39546;45.534;12.048;2022-08-11T17:54:26;32.90;34.20
53643;DHT22;39546;45.534;12.048;2022-08-11T18:00:49;32.60;34.90
53643;DHT22;39546;45.534;12.048;2022-08-11T18:06:53;32.30;35.30
53643;DHT22;39546;45.534;12.048;2022-08-11T18:12:56;32.20;35.70
53643;DHT22;39546;45.534;12.048;2022-08-11T18:19:17;32.00;36.30
53643;DHT22;39546;45.534;12.048;2022-08-11T18:25:41;31.80;36.60
53643;DHT22;39546;45.534;12.048;2022-08-11T18:32:03;31.70;37.10
53643;DHT22;39546;45.534;12.048;2022-08-11T18:38:26;31.60;37.50
53643;DHT22;39546;45.534;12.048;2022-08-11T18:44:50;31.50;37.90
53643;DHT22;39546;45.534;12.048;2022-08-11T18:51:14;31.40;38.20
53643;DHT22;39546;45.534;12.048;2022-08-11T18:57:38;31.30;38.60
53643;DHT22;39546;45.534;12.048;2022-08-11T19:04:03;31.10;39.10
53643;DHT22;39546;45.534;12.048;2022-08-11T19:10:25;30.90;40.60
53643;DHT22;39546;45.534;12.048;2022-08-11T19:16:47;30.80;41.00
53643;DHT22;39546;45.534;12.048;2022-08-11T19:23:14;30.70;41.20
53643;DHT22;39546;45.534;12.048;2022-08-11T19:29:36;30.70;41.20
53643;DHT22;39546;45.534;12.048;2022-08-11T19:36:16;30.60;41.40
53643;DHT22;39546;45.534;12.048;2022-08-11T19:42:48;30.50;41.70
53643;DHT22;39546;45.534;12.048;2022-08-11T19:49:23;30.50;41.80
53643;DHT22;39546;45.534;12.048;2022-08-11T19:55:46;30.40;42.00
53643;DHT22;39546;45.534;12.048;2022-08-11T20:02:31;30.30;42.20
53643;DHT22;39546;45.534;12.048;2022-08-11T20:08:57;30.30;42.60
53643;DHT22;39546;45.534;12.048;2022-08-11T20:15:26;30.30;43.20
53643;DHT22;39546;45.534;12.048;2022-08-11T20:21:48;30.10;43.40
53643;DHT22;39546;45.534;12.048;2022-08-11T20:28:30;30.10;43.70
53643;DHT22;39546;45.534;12.048;2022-08-11T20:34:54;30.00;43.80
53643;DHT22;39546;45.534;12.048;2022-08-11T20:41:18;29.80;44.10
53643;DHT22;39546;45.534;12.048;2022-08-11T20:47:42;29.80;44.30
53643;DHT22;39546;45.534;12.048;2022-08-11T20:54:06;29.80;44.40
53643;DHT22;39546;45.534;12.048;2022-08-11T21:00:27;29.70;44.50
53643;DHT22;39546;45.534;12.048;2022-08-11T21:06:50;29.60;44.80
53643;DHT22;39546;45.534;12.048;2022-08-11T21:13:12;29.60;45.00
53643;DHT22;39546;45.534;12.048;2022-08-11T21:19:44;29.60;45.10
53643;DHT22;39546;45.534;12.048;2022-08-11T21:26:10;29.50;45.20
53643;DHT22;39546;45.534;12.048;2022-08-11T21:32:36;29.50;45.40
53643;DHT22;39546;45.534;12.048;2022-08-11T21:39:02;29.40;45.60
53643;DHT22;39546;45.534;12.048;2022-08-11T21:45:43;29.40;45.70
53643;DHT22;39546;45.534;12.048;2022-08-11T21:52:05;29.30;45.80
53643;DHT22;39546;45.534;12.048;2022-08-11T21:58:26;29.30;46.00
53643;DHT22;39546;45.534;12.048;2022-08-11T22:04:48;29.30;46.10
53643;DHT22;39546;45.534;12.048;2022-08-11T22:11:09;29.20;46.00
53643;DHT22;39546;45.534;12.048;2022-08-11T22:17:30;29.10;46.00
53643;DHT22;39546;45.534;12.048;2022-08-11T22:23:51;29.00;46.20
53643;DHT22;39546;45.534;12.048;2022-08-11T22:30:14;29.00;46.20
53643;DHT22;39546;45.534;12.048;2022-08-11T22:36:35;29.10;46.20
53643;DHT22;39546;45.534;12.048;2022-08-11T22:42:57;29.00;46.30
53643;DHT22;39546;45.534;12.048;2022-08-11T22:49:19;29.00;46.50
53643;DHT22;39546;45.534;12.048;2022-08-11T22:55:40;29.10;46.40
53643;DHT22;39546;45.534;12.048;2022-08-11T23:02:03;29.00;46.50
53643;DHT22;39546;45.534;12.048;2022-08-11T23:08:24;29.00;46.60
53643;DHT22;39546;45.534;12.048;2022-08-11T23:14:47;29.00;47.00
53643;DHT22;39546;45.534;12.048;2022-08-11T23:21:11;29.00;47.40
53643;DHT22;39546;45.534;12.048;2022-08-11T23:27:34;28.90;47.30
53643;DHT22;39546;45.534;12.048;2022-08-11T23:33:58;28.80;47.30
53643;DHT22;39546;45.534;12.048;2022-08-11T23:40:21;28.80;47.50
53643;DHT22;39546;45.534;12.048;2022-08-11T23:46:42;28.70;48.00
53643;DHT22;39546;45.534;12.048;2022-08-11T23:53:04;28.60;48.60
53643;DHT22;39546;45.534;12.048;2022-08-11T23:59:26;28.60;48.40
